Astrid — OFLT — position and weather

sailwx.info

Track history (hours):
 
Tides and Currents Weather Stations Pressure Air Temp Water Temp Dewpoint Dewpoint Depression Visibility Wind Speed Wind Dir Waves Ship Positions

Astrid

Last reported at 2017-Jul-25 16:29 UTC. Time now 2017-Jul-25 16:30 UTC.
Position N 59°55' E 022°28'.

Length 25 m; draft 2.3 m.

Type: Sailing vessel. MMSI: 230998670.

Date/timePositionNaut miles runAvg speedWind from/ knotsBaromVisibWave heightAir tempDewpointWater temp
2017-Jul-25 16:29N 59°55' E 022°28'0 0.0
2017-Jul-25 16:00N 59°55' E 022°28'0 0.0
2017-Jul-25 15:30N 59°55' E 022°28'0 0.0
2017-Jul-25 15:00N 59°55' E 022°28'2 2.0
2017-Jul-25 14:00N 59°55' E 022°25'4 7.4
2017-Jul-25 13:30N 59°58' E 022°23'3 6.8
2017-Jul-25 13:00N 60°01' E 022°19'4 7.3
2017-Jul-25 12:30N 60°03' E 022°13'4 7.4
2017-Jul-25 12:00N 60°05' E 022°06'2 3.2
2017-Jul-25 11:29N 60°04' E 022°03'0 0.0
2017-Jul-25 10:59N 60°04' E 022°03'0 0.0
2017-Jul-25 10:29N 60°04' E 022°03'0 0.0
2017-Jul-25 10:01N 60°04' E 022°03'1 2.4
2017-Jul-25 09:31N 60°04' E 022°05'0 0.7
2017-Jul-25 08:58N 60°04' E 022°06'0 0.0
2017-Jul-25 08:28N 60°04' E 022°06'0 0.0
2017-Jul-25 07:55N 60°04' E 022°06'0 0.0
2017-Jul-25 07:28N 60°04' E 022°06'0 0.0
2017-Jul-25 06:58N 60°04' E 022°06'0 0.0
2017-Jul-25 06:28N 60°04' E 022°06'0 0.0
2017-Jul-25 05:58N 60°04' E 022°06'0 0.0
2017-Jul-25 05:28N 60°04' E 022°06'0 0.0
2017-Jul-25 04:58N 60°04' E 022°06'0 0.0
2017-Jul-25 04:28N 60°04' E 022°06'0 0.0
2017-Jul-25 03:58N 60°04' E 022°06'0 0.0
2017-Jul-25 03:28N 60°04' E 022°06'0 0.0
2017-Jul-25 02:58N 60°04' E 022°06'0 0.0
2017-Jul-25 02:28N 60°04' E 022°06'0 0.0
2017-Jul-25 01:58N 60°04' E 022°06'0 0.0
2017-Jul-25 01:28N 60°04' E 022°06'0 0.0
2017-Jul-25 00:58N 60°04' E 022°06'0 0.0
2017-Jul-25 00:28N 60°04' E 022°06'0 0.0
2017-Jul-24 23:58N 60°04' E 022°06'0 0.0
2017-Jul-24 23:28N 60°04' E 022°06'0 0.0
2017-Jul-24 22:58N 60°04' E 022°06'0 0.0
2017-Jul-24 22:28N 60°04' E 022°06'0 0.0
2017-Jul-24 21:58N 60°04' E 022°06'0 0.0
2017-Jul-24 21:28N 60°04' E 022°06'0 0.0
2017-Jul-24 20:58N 60°04' E 022°06'0 0.0
2017-Jul-24 20:29N 60°04' E 022°06'0 0.0
2017-Jul-24 19:58N 60°04' E 022°06'0 0.0
2017-Jul-24 19:29N 60°04' E 022°06'0 0.0
2017-Jul-24 18:58N 60°04' E 022°06'0 0.0
2017-Jul-24 18:28N 60°04' E 022°06'0 0.0
2017-Jul-24 17:58N 60°04' E 022°06'0 0.0
2017-Jul-24 17:28N 60°04' E 022°06'0 0.0
2017-Jul-24 16:58N 60°04' E 022°06'0 0.0
2017-Jul-24 16:28N 60°04' E 022°06'0 0.0
2017-Jul-24 15:58N 60°04' E 022°06'0 0.0
2017-Jul-24 12:58N 60°04' E 022°06'0 0.3
2017-Jul-24 12:30N 60°03' E 022°06'2 3.9
2017-Jul-24 12:01N 60°05' E 022°06'1 1.7
2017-Jul-24 11:29N 60°06' E 022°04'0 0.0
2017-Jul-24 10:59N 60°06' E 022°04'0 0.0
2017-Jul-24 10:29N 60°06' E 022°04'0 0.0
2017-Jul-24 09:59N 60°06' E 022°04'0 0.0
2017-Jul-24 09:29N 60°06' E 022°04'0 0.0
2017-Jul-24 08:58N 60°06' E 022°04'0 0.0
2017-Jul-24 08:27N 60°06' E 022°04'0 0.0
2017-Jul-24 07:50N 60°06' E 022°04'0 0.0
2017-Jul-24 07:28N 60°06' E 022°04'0 0.0
2017-Jul-24 07:00N 60°06' E 022°04'0 0.0
2017-Jul-24 06:28N 60°06' E 022°04'0 0.0
2017-Jul-24 05:59N 60°06' E 022°04'0 0.0
2017-Jul-24 05:29N 60°06' E 022°04'0 0.0
2017-Jul-24 04:59N 60°06' E 022°04'0 0.0
2017-Jul-24 04:28N 60°06' E 022°04'0 0.0
2017-Jul-24 03:58N 60°06' E 022°04'0 0.0
2017-Jul-24 03:29N 60°06' E 022°04'0 0.0
2017-Jul-24 03:00N 60°06' E 022°04'0 0.0
2017-Jul-24 02:30N 60°06' E 022°04'0 0.0
2017-Jul-24 02:00N 60°06' E 022°04'0 0.0
2017-Jul-24 01:30N 60°06' E 022°04'0 0.0
2017-Jul-24 00:58N 60°06' E 022°04'0 0.0
2017-Jul-24 00:29N 60°06' E 022°04'0 0.0
2017-Jul-24 00:00N 60°06' E 022°04'0 0.0
2017-Jul-23 23:30N 60°06' E 022°04'0 0.0
2017-Jul-23 23:00N 60°06' E 022°04'0 0.0
2017-Jul-23 22:28N 60°06' E 022°04'0 0.0
2017-Jul-23 21:58N 60°06' E 022°04'0 0.0
2017-Jul-23 21:28N 60°06' E 022°04'0 0.0
2017-Jul-23 20:58N 60°06' E 022°04'0 0.0
2017-Jul-23 20:29N 60°06' E 022°04'0 0.0
2017-Jul-23 19:59N 60°06' E 022°04'0 0.0
2017-Jul-23 19:25N 60°06' E 022°04'0 0.0
2017-Jul-23 19:00N 60°06' E 022°04'0 0.0
2017-Jul-23 18:30N 60°06' E 022°04'0 0.0
2017-Jul-23 18:00N 60°06' E 022°04'0 0.0
2017-Jul-23 17:30N 60°06' E 022°04'0 0.1
2017-Jul-23 17:00N 60°06' E 022°04'3 6.3
2017-Jul-23 16:31N 60°08' E 022°08'3 5.5
2017-Jul-23 16:00N 60°11' E 022°10'3 6.6
2017-Jul-23 15:30N 60°14' E 022°07'0 0.5
2017-Jul-23 15:00N 60°14' E 022°07'3 6.2
2017-Jul-23 14:31N 60°17' E 022°05'3 5.0
2017-Jul-23 14:00N 60°19' E 022°04'3 5.3
2017-Jul-23 13:30N 60°22' E 022°06'2 3.1
2017-Jul-23 13:00N 60°23' E 022°07'2 3.8
2017-Jul-23 12:30N 60°25' E 022°08'2 5.0
2017-Jul-23 12:00N 60°26' E 022°13'1 2.0
2017-Jul-23 11:26N 60°27' E 022°15'0 0.0
2017-Jul-23 10:59N 60°27' E 022°15'0 0.0
2017-Jul-23 10:26N 60°27' E 022°15'0 0.0
2017-Jul-23 09:59N 60°27' E 022°15'1 2.2
2017-Jul-23 09:30N 60°26' E 022°13'0 0.3
2017-Jul-23 09:01N 60°26' E 022°13'2 4.7
2017-Jul-23 08:31N 60°25' E 022°09'1 2.4
2017-Jul-23 08:01N 60°24' E 022°07'1 1.0
2017-Jul-23 07:31N 60°24' E 022°07'2 4.1
2017-Jul-23 07:00N 60°25' E 022°10'2 3.5
2017-Jul-23 06:31N 60°27' E 022°13'0 0.8
2017-Jul-23 06:01N 60°26' E 022°13'1 1.9
2017-Jul-23 05:28N 60°27' E 022°15'0 0.0
2017-Jul-23 04:58N 60°27' E 022°15'0 0.0
2017-Jul-23 04:28N 60°27' E 022°15'0 0.0
2017-Jul-23 03:58N 60°27' E 022°15'0 0.0
2017-Jul-23 03:28N 60°26' E 022°15'0 0.0
2017-Jul-23 02:58N 60°27' E 022°15'0 0.0
2017-Jul-23 02:28N 60°27' E 022°15'0 0.0
2017-Jul-23 01:58N 60°27' E 022°15'0 0.0
2017-Jul-23 01:28N 60°27' E 022°15'0 0.0
2017-Jul-23 00:58N 60°27' E 022°15'0 0.0
2017-Jul-23 00:28N 60°27' E 022°15'0 0.0
2017-Jul-22 23:58N 60°27' E 022°15'0 0.0
2017-Jul-22 23:30N 60°27' E 022°15'0 0.0
2017-Jul-22 22:58N 60°27' E 022°15'0 0.0
2017-Jul-22 22:28N 60°27' E 022°15'0 0.0
2017-Jul-22 21:58N 60°27' E 022°15'0 0.0
2017-Jul-22 21:28N 60°27' E 022°15'0 0.0
2017-Jul-22 20:59N 60°27' E 022°15'0 0.0
2017-Jul-22 20:30N 60°27' E 022°15'0 0.0
2017-Jul-22 19:59N 60°27' E 022°15'0 0.0
2017-Jul-22 19:28N 60°27' E 022°15'0 0.0
2017-Jul-22 18:58N 60°27' E 022°15'0 0.0
2017-Jul-22 18:30N 60°27' E 022°15'0 0.0
2017-Jul-22 18:01N 60°27' E 022°15'0 0.0
2017-Jul-22 17:28N 60°27' E 022°15'0 0.0
2017-Jul-22 16:58N 60°27' E 022°15'0 0.0
2017-Jul-22 16:28N 60°27' E 022°15'0 0.0
2017-Jul-22 15:57N 60°27' E 022°15'0 0.0
2017-Jul-22 15:30N 60°27' E 022°15'0 0.0
2017-Jul-22 15:01N 60°27' E 022°15'0 0.0
2017-Jul-22 14:01N 60°27' E 022°15'0 0.0
2017-Jul-22 13:31N 60°27' E 022°15'0 0.0
2017-Jul-22 13:00N 60°27' E 022°15'0 0.0
2017-Jul-22 12:30N 60°27' E 022°15'0 0.0
2017-Jul-22 12:00N 60°27' E 022°15'0 0.0
2017-Jul-22 11:30N 60°27' E 022°15'0 0.0
2017-Jul-22 10:57N 60°27' E 022°15'0 0.0
2017-Jul-22 10:30N 60°27' E 022°15'0 0.0
2017-Jul-22 10:01N 60°27' E 022°15'0 0.0
2017-Jul-22 09:30N 60°27' E 022°15'0 0.0
2017-Jul-22 08:57N 60°27' E 022°15'0 0.0
2017-Jul-22 08:30N 60°27' E 022°15'0 0.0
2017-Jul-22 08:01N 60°27' E 022°15'0 0.0
2017-Jul-22 07:30N 60°27' E 022°15'0 0.0
2017-Jul-22 07:00N 60°27' E 022°15'0 0.0
2017-Jul-22 06:27N 60°27' E 022°15'0 0.0
2017-Jul-22 06:00N 60°27' E 022°15'0 0.0
2017-Jul-22 05:30N 60°27' E 022°15'0 0.0
2017-Jul-22 05:00N 60°27' E 022°15'0 0.0
2017-Jul-22 04:30N 60°27' E 022°15'0 0.0
2017-Jul-22 04:00N 60°27' E 022°15'0 0.0
2017-Jul-22 03:30N 60°27' E 022°15'0 0.0
2017-Jul-22 03:00N 60°27' E 022°15'0 0.0
2017-Jul-22 02:30N 60°27' E 022°15'0 0.0
2017-Jul-22 02:00N 60°27' E 022°15'0 0.0
2017-Jul-22 01:29N 60°27' E 022°15'0 0.0
2017-Jul-22 00:59N 60°27' E 022°15'0 0.0
2017-Jul-22 00:29N 60°27' E 022°15'0 0.0
2017-Jul-22 00:00N 60°27' E 022°15'0 0.0
2017-Jul-21 23:30N 60°27' E 022°15'0 0.0
2017-Jul-21 23:00N 60°27' E 022°15'0 0.0
2017-Jul-21 22:30N 60°27' E 022°15'0 0.0
2017-Jul-21 22:00N 60°27' E 022°15'0 0.0
2017-Jul-21 21:29N 60°27' E 022°15'0 0.0
2017-Jul-21 20:59N 60°27' E 022°15'0 0.0
2017-Jul-21 20:30N 60°27' E 022°15'0 0.0
2017-Jul-21 20:00N 60°27' E 022°15'0 0.0
2017-Jul-21 19:29N 60°27' E 022°15'0 0.0
2017-Jul-21 18:59N 60°27' E 022°15'0 0.0
2017-Jul-21 18:30N 60°27' E 022°15'0 0.0
2017-Jul-21 17:59N 60°27' E 022°15'0 0.0
2017-Jul-21 17:30N 60°27' E 022°15'0 0.0
2017-Jul-21 16:59N 60°27' E 022°15'0 0.0
2017-Jul-21 16:30N 60°27' E 022°15'0 0.0
2017-Jul-21 16:00N 60°27' E 022°15'0 0.0
2017-Jul-21 15:29N 60°27' E 022°15'0 0.0
2017-Jul-21 14:59N 60°27' E 022°15'0 0.0
2017-Jul-21 14:29N 60°27' E 022°15'0 0.0
2017-Jul-21 13:59N 60°27' E 022°15'0 0.0
2017-Jul-21 13:29N 60°27' E 022°15'0 0.0
2017-Jul-21 13:00N 60°27' E 022°15'0 0.0
2017-Jul-21 12:30N 60°27' E 022°15'0 0.0
2017-Jul-21 11:56N 60°27' E 022°15'0 0.0
2017-Jul-21 11:29N 60°27' E 022°15'0 0.0
2017-Jul-21 11:00N 60°27' E 022°15'0 0.0
2017-Jul-21 10:30N 60°27' E 022°15'0 0.0
2017-Jul-21 09:59N 60°27' E 022°15'0 0.0
2017-Jul-21 09:29N 60°27' E 022°15'0 0.0
2017-Jul-21 08:59N 60°27' E 022°15'0 0.0
2017-Jul-21 08:29N 60°27' E 022°15'0 0.0
2017-Jul-21 07:59N 60°27' E 022°15'0 0.0
2017-Jul-21 07:29N 60°27' E 022°15'0 0.0
2017-Jul-21 06:59N 60°27' E 022°15'0 0.0
2017-Jul-21 06:29N 60°27' E 022°15'0 0.0
2017-Jul-21 05:59N 60°27' E 022°15'0 0.0
2017-Jul-21 05:29N 60°27' E 022°15'0 0.0
2017-Jul-21 04:59N 60°27' E 022°15'0 0.0
2017-Jul-21 04:29N 60°27' E 022°15'0 0.0
2017-Jul-21 03:59N 60°27' E 022°15'0 0.0
2017-Jul-21 03:29N 60°27' E 022°15'0 0.0
2017-Jul-21 02:59N 60°27' E 022°15'0 0.0
2017-Jul-21 02:29N 60°27' E 022°15'0 0.0
2017-Jul-21 01:59N 60°27' E 022°15'0 0.0
2017-Jul-21 01:29N 60°27' E 022°15'0 0.0
2017-Jul-21 00:59N 60°27' E 022°15'0 0.0
2017-Jul-21 00:29N 60°27' E 022°15'0 0.0
2017-Jul-20 23:59N 60°27' E 022°15'0 0.0
2017-Jul-20 23:29N 60°27' E 022°15'0 0.0
2017-Jul-20 22:59N 60°27' E 022°15'0 0.0
2017-Jul-20 22:29N 60°27' E 022°15'0 0.0
2017-Jul-20 21:59N 60°27' E 022°15'0 0.0
2017-Jul-20 21:29N 60°27' E 022°15'0 0.0
2017-Jul-20 21:00N 60°27' E 022°15'0 0.0
2017-Jul-20 20:25N 60°27' E 022°15'0 0.0
2017-Jul-20 19:59N 60°27' E 022°15'0 0.0
2017-Jul-20 19:30N 60°27' E 022°15'0 0.0
2017-Jul-20 18:59N 60°27' E 022°15'0 0.0
2017-Jul-20 18:29N 60°27' E 022°15'0 0.0
2017-Jul-20 17:59N 60°27' E 022°15'0 0.0
2017-Jul-20 17:29N 60°27' E 022°15'0 0.0
2017-Jul-20 16:59N 60°27' E 022°15'0 0.0
2017-Jul-20 16:27N 60°27' E 022°15'0 0.0
2017-Jul-20 15:59N 60°27' E 022°15'0 0.0
2017-Jul-20 15:29N 60°27' E 022°15'0 0.0
2017-Jul-20 14:59N 60°27' E 022°15'0 0.0
2017-Jul-20 13:59N 60°27' E 022°15'0 0.0
2017-Jul-20 13:29N 60°27' E 022°15'0 0.0
2017-Jul-20 12:59N 60°27' E 022°15'0 0.0
2017-Jul-20 12:29N 60°27' E 022°15'0 0.0
2017-Jul-20 11:59N 60°27' E 022°15'0 0.0
2017-Jul-20 11:29N 60°27' E 022°15'0 0.0
2017-Jul-20 10:59N 60°27' E 022°15'0 0.0
2017-Jul-20 10:29N 60°27' E 022°15'0 0.0
2017-Jul-20 09:59N 60°27' E 022°15'0 0.0
2017-Jul-20 09:29N 60°27' E 022°15'0 0.0
2017-Jul-20 08:59N 60°27' E 022°15'0 0.7
2017-Jul-20 08:31N 60°26' E 022°15'2 4.1
2017-Jul-20 08:01N 60°25' E 022°11'3 6.3
2017-Jul-20 07:30N 60°23' E 022°07'3 6.3
2017-Jul-20 07:00N 60°20' E 022°04'2 4.1
2017-Jul-20 06:31N 60°18' E 022°03'2 3.3
2017-Jul-20 06:01N 60°17' E 022°01'3 5.1
2017-Jul-20 05:31N 60°14' E 021°59'0 0.4
2017-Jul-20 05:00N 60°14' E 021°58'0 0.0
2017-Jul-20 04:30N 60°14' E 021°58'0 0.0
2017-Jul-20 04:00N 60°14' E 021°58'0 0.0
2017-Jul-20 03:30N 60°14' E 021°58'0 0.0
2017-Jul-20 03:00N 60°14' E 021°58'0 0.0
2017-Jul-20 02:30N 60°14' E 021°58'0 0.0
2017-Jul-20 02:00N 60°14' E 021°58'0 0.0
2017-Jul-20 01:30N 60°14' E 021°58'0 0.0
2017-Jul-20 01:00N 60°14' E 021°58'0 0.0
2017-Jul-20 00:30N 60°14' E 021°58'0 0.0
2017-Jul-20 00:00N 60°14' E 021°58'0 0.0
2017-Jul-19 23:30N 60°14' E 021°58'0 0.0
2017-Jul-19 23:00N 60°14' E 021°58'0 0.0
2017-Jul-19 22:30N 60°14' E 021°58'0 0.0
2017-Jul-19 22:00N 60°14' E 021°58'0 0.0
2017-Jul-19 21:30N 60°14' E 021°58'0 0.0
2017-Jul-19 21:00N 60°14' E 021°58'0 0.0
2017-Jul-19 20:30N 60°14' E 021°58'0 0.0
2017-Jul-19 19:58N 60°14' E 021°58'0 0.0
2017-Jul-19 19:30N 60°14' E 021°58'0 0.0
2017-Jul-19 19:00N 60°14' E 021°58'0 0.0
2017-Jul-19 18:30N 60°14' E 021°58'0 0.0
2017-Jul-19 18:00N 60°14' E 021°58'0 0.0
2017-Jul-19 17:30N 60°14' E 021°58'0 0.0
2017-Jul-19 17:00N 60°14' E 021°58'0 0.0
2017-Jul-19 16:30N 60°14' E 021°58'0 0.0
2017-Jul-19 16:00N 60°14' E 021°58'0 0.0
2017-Jul-19 15:30N 60°14' E 021°58'0 0.0
2017-Jul-19 15:00N 60°14' E 021°58'0 0.0
2017-Jul-19 14:31N 60°14' E 021°58'2 4.1
2017-Jul-19 14:00N 60°13' E 022°02'3 6.5
2017-Jul-19 13:30N 60°13' E 022°08'3 6.5
2017-Jul-19 13:00N 60°11' E 022°14'2 4.8
2017-Jul-19 12:30N 60°09' E 022°17'3 5.5
2017-Jul-19 12:01N 60°07' E 022°20'2 4.3
2017-Jul-19 11:30N 60°05' E 022°20'3 6.0
2017-Jul-19 11:00N 60°02' E 022°18'3 5.1
2017-Jul-19 10:30N 59°59' E 022°17'1 2.5
2017-Jul-19 10:00N 60°00' E 022°19'3 6.3
2017-Jul-19 09:30N 59°57' E 022°19'4 7.7
2017-Jul-19 09:01N 59°54' E 022°15'1 2.0
2017-Jul-19 08:31N 59°53' E 022°17'3 6.5
2017-Jul-19 08:01N 59°53' E 022°23'3 5.6
2017-Jul-19 07:31N 59°55' E 022°28'1 1.2
2017-Jul-19 07:00N 59°55' E 022°28'0 0.0
2017-Jul-19 06:30N 59°55' E 022°28'0 0.0
2017-Jul-19 06:00N 59°55' E 022°28'0 0.0
2017-Jul-19 05:30N 59°55' E 022°28'0 0.0
2017-Jul-19 05:00N 59°55' E 022°28'0 0.0
2017-Jul-19 04:30N 59°55' E 022°28'0 0.0
2017-Jul-19 04:00N 59°55' E 022°28'0 0.0
2017-Jul-19 03:30N 59°55' E 022°28'0 0.0
2017-Jul-19 03:00N 59°55' E 022°28'0 0.0
2017-Jul-19 02:30N 59°55' E 022°28'0 0.0
2017-Jul-19 02:00N 59°55' E 022°28'0 0.0
2017-Jul-19 01:30N 59°55' E 022°28'0 0.0
2017-Jul-19 01:00N 59°55' E 022°28'0 0.0
2017-Jul-19 00:30N 59°55' E 022°28'0 0.0
2017-Jul-19 00:00N 59°55' E 022°28'0 0.0
2017-Jul-18 23:30N 59°55' E 022°28'0 0.0
2017-Jul-18 23:00N 59°55' E 022°28'0 0.0
2017-Jul-18 22:27N 59°55' E 022°28'0 0.0
2017-Jul-18 22:00N 59°55' E 022°28'0 0.0
2017-Jul-18 21:30N 59°55' E 022°28'0 0.0
2017-Jul-18 21:00N 59°55' E 022°28'0 0.0
2017-Jul-18 20:29N 59°55' E 022°28'0 0.0
2017-Jul-18 20:00N 59°55' E 022°28'0 0.0
2017-Jul-18 19:30N 59°55' E 022°28'0 0.0
2017-Jul-18 18:57N 59°55' E 022°28'0 0.0
2017-Jul-18 18:30N 59°55' E 022°28'0 0.0
2017-Jul-18 18:00N 59°55' E 022°28'0 0.0
2017-Jul-18 17:30N 59°55' E 022°28'0 0.0
2017-Jul-18 17:00N 59°55' E 022°28'0 0.0
2017-Jul-18 16:30N 59°55' E 022°28'0 0.1
2017-Jul-18 16:00N 59°55' E 022°28'1 2.5
2017-Jul-18 15:30N 59°54' E 022°29'3 6.9
2017-Jul-18 15:01N 59°55' E 022°36'7 7.0
2017-Jul-18 14:00N 59°51' E 022°48'4 7.1
2017-Jul-18 13:30N 59°49' E 022°53'2 4.2
2017-Jul-18 13:00N 59°49' E 022°57'0 0.0
2017-Jul-18 12:30N 59°49' E 022°57'0 0.0
2017-Jul-18 12:00N 59°49' E 022°57'0 0.0
2017-Jul-18 11:30N 59°49' E 022°57'0 0.0
2017-Jul-18 11:00N 59°49' E 022°57'2 3.3
2017-Jul-18 10:30N 59°48' E 022°58'3 6.8
2017-Jul-18 10:00N 59°48' E 023°05'3 6.8
2017-Jul-18 09:30N 59°48' E 023°12'3 6.8
2017-Jul-18 09:00N 59°49' E 023°18'3 6.9
2017-Jul-18 08:30N 59°50' E 023°25'3 6.4
2017-Jul-18 08:00N 59°51' E 023°31'3 7.0
2017-Jul-18 07:30N 59°52' E 023°37'4 7.2
2017-Jul-18 07:00N 59°54' E 023°43'4 7.3
2017-Jul-18 06:30N 59°57' E 023°49'3 6.7
2017-Jul-18 06:00N 59°59' E 023°54'3 6.5
2017-Jul-18 05:30N 59°60' E 023°60'0 0.7
2017-Jul-18 05:00N 59°60' E 023°59'0 0.0
2017-Jul-18 04:30N 59°60' E 023°59'0 0.0
2017-Jul-18 04:00N 59°60' E 023°59'0 0.0
2017-Jul-18 03:30N 59°60' E 023°59'0 0.0
2017-Jul-18 02:57N 59°60' E 023°59'0 0.0
2017-Jul-18 02:30N 59°60' E 023°59'0 0.0
2017-Jul-18 02:00N 59°60' E 023°59'0 0.0
2017-Jul-18 01:30N 59°60' E 023°59'0 0.0
2017-Jul-18 01:00N 59°60' E 023°59'0 0.0
2017-Jul-18 00:30N 59°60' E 023°59'0 0.0
2017-Jul-18 00:00N 59°60' E 023°59'0 0.0
2017-Jul-17 23:30N 59°60' E 023°59'0 0.0
2017-Jul-17 22:57N 59°60' E 023°59'0 0.0
2017-Jul-17 22:30N 59°60' E 023°59'0 0.0
2017-Jul-17 22:00N 59°60' E 023°59'0 0.0
2017-Jul-17 21:30N 59°60' E 023°59'0 0.0
2017-Jul-17 21:00N 59°60' E 023°59'0 0.0
2017-Jul-17 20:31N 59°60' E 023°59'0 0.0
2017-Jul-17 20:00N 59°60' E 023°59'0 0.0
2017-Jul-17 19:30N 59°60' E 023°59'0 0.0
2017-Jul-17 19:00N 59°60' E 023°59'3 5.8
2017-Jul-17 18:30N 60°00' E 024°05'4 7.1
2017-Jul-17 18:00N 60°01' E 024°12'2 4.4
2017-Jul-17 17:30N 60°01' E 024°16'2 4.0
2017-Jul-17 16:59N 59°59' E 024°19'2 5.0
2017-Jul-17 16:30N 59°58' E 024°23'3 5.7
2017-Jul-17 16:00N 59°59' E 024°28'3 6.2
2017-Jul-17 15:31N 60°00' E 024°34'3 6.6
2017-Jul-17 15:00N 60°03' E 024°39'3 6.6
2017-Jul-17 14:31N 60°05' E 024°44'3 6.4
2017-Jul-17 14:00N 60°05' E 024°50'2 4.5
2017-Jul-17 13:30N 60°05' E 024°54'3 5.5
2017-Jul-17 13:01N 60°07' E 024°58'3 5.4
2017-Jul-17 12:31N 60°10' E 024°60'1 2.2
2017-Jul-17 11:59N 60°10' E 024°58'0 0.0
2017-Jul-17 11:29N 60°10' E 024°58'0 0.0
2017-Jul-17 11:00N 60°10' E 024°58'3 5.6
2017-Jul-17 10:30N 60°09' E 025°03'1 2.2
2017-Jul-17 10:00N 60°09' E 025°05'4 7.1
2017-Jul-17 09:30N 60°11' E 025°12'3 6.0
2017-Jul-17 09:00N 60°11' E 025°18'3 5.6
2017-Jul-17 08:30N 60°12' E 025°23'3 6.4
2017-Jul-17 08:00N 60°12' E 025°30'3 5.6
2017-Jul-17 07:30N 60°11' E 025°35'2 4.7
2017-Jul-17 07:00N 60°11' E 025°40'2 4.3
2017-Jul-17 06:31N 60°12' E 025°44'2 4.5
2017-Jul-17 06:00N 60°11' E 025°49'1 1.4
2017-Jul-17 05:30N 60°11' E 025°50'0 0.0
2017-Jul-17 05:00N 60°11' E 025°50'0 0.0
2017-Jul-17 04:30N 60°11' E 025°50'0 0.0
2017-Jul-17 04:00N 60°11' E 025°50'0 0.0
2017-Jul-17 03:30N 60°11' E 025°50'0 0.0
2017-Jul-17 03:00N 60°11' E 025°50'0 0.0
2017-Jul-17 02:30N 60°11' E 025°50'0 0.0
2017-Jul-17 02:00N 60°11' E 025°50'0 0.0
2017-Jul-17 01:30N 60°11' E 025°50'0 0.0
2017-Jul-17 01:00N 60°11' E 025°50'0 0.0
2017-Jul-17 00:30N 60°11' E 025°50'0 0.0
2017-Jul-17 00:00N 60°11' E 025°50'0 0.0
2017-Jul-16 23:30N 60°11' E 025°50'0 0.0
2017-Jul-16 23:00N 60°11' E 025°50'0 0.0
2017-Jul-16 22:30N 60°11' E 025°50'0 0.0
2017-Jul-16 22:00N 60°11' E 025°50'0 0.0
2017-Jul-16 21:30N 60°11' E 025°50'0 0.0
2017-Jul-16 20:58N 60°11' E 025°50'0 0.0
2017-Jul-16 20:29N 60°11' E 025°50'0 0.0
2017-Jul-16 19:59N 60°11' E 025°50'0 0.0
2017-Jul-16 19:27N 60°11' E 025°50'0 0.0
2017-Jul-16 19:00N 60°11' E 025°50'0 0.2
2017-Jul-16 18:31N 60°12' E 025°50'2 3.5
2017-Jul-16 18:00N 60°12' E 025°54'3 6.0
2017-Jul-16 17:30N 60°13' E 025°59'3 6.3
2017-Jul-16 17:01N 60°15' E 026°03'3 6.6
2017-Jul-16 16:31N 60°16' E 026°10'3 6.9
2017-Jul-16 16:00N 60°17' E 026°16'4 7.5
2017-Jul-16 15:31N 60°18' E 026°23'3 6.4
2017-Jul-16 15:00N 60°19' E 026°29'3 5.9
2017-Jul-16 14:30N 60°20' E 026°35'3 6.5
2017-Jul-16 14:00N 60°22' E 026°41'4 7.1
2017-Jul-16 13:31N 60°23' E 026°48'3 6.1
2017-Jul-16 13:00N 60°24' E 026°53'3 6.4
2017-Jul-16 12:30N 60°26' E 026°58'2 3.8
2017-Jul-16 12:00N 60°28' E 026°58'1 1.5
2017-Jul-16 11:31N 60°29' E 026°57'1 0.9
2017-Jul-16 10:59N 60°28' E 026°56'0 0.0
2017-Jul-16 10:30N 60°28' E 026°57'0 0.0
2017-Jul-16 10:00N 60°28' E 026°56'0 0.0
2017-Jul-16 09:29N 60°28' E 026°56'0 0.0
2017-Jul-16 08:59N 60°28' E 026°56'0 0.0
2017-Jul-16 08:29N 60°28' E 026°56'0 0.0
2017-Jul-16 08:00N 60°28' E 026°56'0 0.0
2017-Jul-16 07:29N 60°28' E 026°56'0 0.0
2017-Jul-16 06:59N 60°28' E 026°56'0 0.0
2017-Jul-16 06:29N 60°28' E 026°56'0 0.0
2017-Jul-16 05:59N 60°28' E 026°56'0 0.0
2017-Jul-16 05:29N 60°28' E 026°56'0 0.0
2017-Jul-16 04:59N 60°28' E 026°56'0 0.0
2017-Jul-16 04:29N 60°28' E 026°56'0 0.0
2017-Jul-16 03:59N 60°28' E 026°56'0 0.0
2017-Jul-16 03:29N 60°28' E 026°56'0 0.0
2017-Jul-16 02:59N 60°28' E 026°56'0 0.0
2017-Jul-16 02:30N 60°28' E 026°56'0 0.0
2017-Jul-16 02:00N 60°28' E 026°56'0 0.0
2017-Jul-16 01:29N 60°28' E 026°56'0 0.0
2017-Jul-16 00:59N 60°28' E 026°56'0 0.0
2017-Jul-16 00:30N 60°28' E 026°56'0 0.0
2017-Jul-16 00:00N 60°28' E 026°56'0 0.0
2017-Jul-15 23:30N 60°28' E 026°56'0 0.0
2017-Jul-15 23:00N 60°28' E 026°56'0 0.0
2017-Jul-15 22:29N 60°28' E 026°56'0 0.0
2017-Jul-15 21:59N 60°28' E 026°56'0 0.0
2017-Jul-15 21:30N 60°28' E 026°56'0 0.0
2017-Jul-15 20:59N 60°28' E 026°56'0 0.0
2017-Jul-15 20:29N 60°28' E 026°56'0 0.0
2017-Jul-15 19:59N 60°28' E 026°56'0 0.0
2017-Jul-15 19:29N 60°28' E 026°56'0 0.0
2017-Jul-15 18:59N 60°28' E 026°56'0 0.0
2017-Jul-15 18:29N 60°28' E 026°56'0 0.0
2017-Jul-15 17:59N 60°28' E 026°56'0 0.0
2017-Jul-15 17:29N 60°28' E 026°56'0 0.0
2017-Jul-15 16:59N 60°28' E 026°56'  
Track history (hours):
 
Tides and Currents Weather Stations Pressure Air Temp Water Temp Dewpoint Dewpoint Depression Visibility Wind Speed Wind Dir Waves Ship Positions

Astrid

Last reported at 2017-Jul-25 16:29 UTC. Time now 2017-Jul-25 16:30 UTC.
Position N 59°55' E 022°28'.

Length 25 m; draft 2.3 m.

Type: Sailing vessel. MMSI: 230998670.

Date/timePositionNaut miles runAvg speedWind from/ knotsBaromVisibWave heightAir tempDewpointWater temp
2017-Jul-25 16:29N 59°55' E 022°28'0 0.0
2017-Jul-25 16:00N 59°55' E 022°28'0 0.0
2017-Jul-25 15:30N 59°55' E 022°28'0 0.0
2017-Jul-25 15:00N 59°55' E 022°28'2 2.0
2017-Jul-25 14:00N 59°55' E 022°25'4 7.4
2017-Jul-25 13:30N 59°58' E 022°23'3 6.8
2017-Jul-25 13:00N 60°01' E 022°19'4 7.3
2017-Jul-25 12:30N 60°03' E 022°13'4 7.4
2017-Jul-25 12:00N 60°05' E 022°06'2 3.2
2017-Jul-25 11:29N 60°04' E 022°03'0 0.0
2017-Jul-25 10:59N 60°04' E 022°03'0 0.0
2017-Jul-25 10:29N 60°04' E 022°03'0 0.0
2017-Jul-25 10:01N 60°04' E 022°03'1 2.4
2017-Jul-25 09:31N 60°04' E 022°05'0 0.7
2017-Jul-25 08:58N 60°04' E 022°06'0 0.0
2017-Jul-25 08:28N 60°04' E 022°06'0 0.0
2017-Jul-25 07:55N 60°04' E 022°06'0 0.0
2017-Jul-25 07:28N 60°04' E 022°06'0 0.0
2017-Jul-25 06:58N 60°04' E 022°06'0 0.0
2017-Jul-25 06:28N 60°04' E 022°06'0 0.0
2017-Jul-25 05:58N 60°04' E 022°06'0 0.0
2017-Jul-25 05:28N 60°04' E 022°06'0 0.0
2017-Jul-25 04:58N 60°04' E 022°06'0 0.0
2017-Jul-25 04:28N 60°04' E 022°06'0 0.0
2017-Jul-25 03:58N 60°04' E 022°06'0 0.0
2017-Jul-25 03:28N 60°04' E 022°06'0 0.0
2017-Jul-25 02:58N 60°04' E 022°06'0 0.0
2017-Jul-25 02:28N 60°04' E 022°06'0 0.0
2017-Jul-25 01:58N 60°04' E 022°06'0 0.0
2017-Jul-25 01:28N 60°04' E 022°06'0 0.0
2017-Jul-25 00:58N 60°04' E 022°06'0 0.0
2017-Jul-25 00:28N 60°04' E 022°06'0 0.0
2017-Jul-24 23:58N 60°04' E 022°06'0 0.0
2017-Jul-24 23:28N 60°04' E 022°06'0 0.0
2017-Jul-24 22:58N 60°04' E 022°06'0 0.0
2017-Jul-24 22:28N 60°04' E 022°06'0 0.0
2017-Jul-24 21:58N 60°04' E 022°06'0 0.0
2017-Jul-24 21:28N 60°04' E 022°06'0 0.0
2017-Jul-24 20:58N 60°04' E 022°06'0 0.0
2017-Jul-24 20:29N 60°04' E 022°06'0 0.0
2017-Jul-24 19:58N 60°04' E 022°06'0 0.0
2017-Jul-24 19:29N 60°04' E 022°06'0 0.0
2017-Jul-24 18:58N 60°04' E 022°06'0 0.0
2017-Jul-24 18:28N 60°04' E 022°06'0 0.0
2017-Jul-24 17:58N 60°04' E 022°06'0 0.0
2017-Jul-24 17:28N 60°04' E 022°06'0 0.0
2017-Jul-24 16:58N 60°04' E 022°06'0 0.0
2017-Jul-24 16:28N 60°04' E 022°06'0 0.0
2017-Jul-24 15:58N 60°04' E 022°06'0 0.0
2017-Jul-24 12:58N 60°04' E 022°06'0 0.3
2017-Jul-24 12:30N 60°03' E 022°06'2 3.9
2017-Jul-24 12:01N 60°05' E 022°06'1 1.7
2017-Jul-24 11:29N 60°06' E 022°04'0 0.0
2017-Jul-24 10:59N 60°06' E 022°04'0 0.0
2017-Jul-24 10:29N 60°06' E 022°04'0 0.0
2017-Jul-24 09:59N 60°06' E 022°04'0 0.0
2017-Jul-24 09:29N 60°06' E 022°04'0 0.0
2017-Jul-24 08:58N 60°06' E 022°04'0 0.0
2017-Jul-24 08:27N 60°06' E 022°04'0 0.0
2017-Jul-24 07:50N 60°06' E 022°04'0 0.0
2017-Jul-24 07:28N 60°06' E 022°04'0 0.0
2017-Jul-24 07:00N 60°06' E 022°04'0 0.0
2017-Jul-24 06:28N 60°06' E 022°04'0 0.0
2017-Jul-24 05:59N 60°06' E 022°04'0 0.0
2017-Jul-24 05:29N 60°06' E 022°04'0 0.0
2017-Jul-24 04:59N 60°06' E 022°04'0 0.0
2017-Jul-24 04:28N 60°06' E 022°04'0 0.0
2017-Jul-24 03:58N 60°06' E 022°04'0 0.0
2017-Jul-24 03:29N 60°06' E 022°04'0 0.0
2017-Jul-24 03:00N 60°06' E 022°04'0 0.0
2017-Jul-24 02:30N 60°06' E 022°04'0 0.0
2017-Jul-24 02:00N 60°06' E 022°04'0 0.0
2017-Jul-24 01:30N 60°06' E 022°04'0 0.0
2017-Jul-24 00:58N 60°06' E 022°04'0 0.0
2017-Jul-24 00:29N 60°06' E 022°04'0 0.0
2017-Jul-24 00:00N 60°06' E 022°04'0 0.0
2017-Jul-23 23:30N 60°06' E 022°04'0 0.0
2017-Jul-23 23:00N 60°06' E 022°04'0 0.0
2017-Jul-23 22:28N 60°06' E 022°04'0 0.0
2017-Jul-23 21:58N 60°06' E 022°04'0 0.0
2017-Jul-23 21:28N 60°06' E 022°04'0 0.0
2017-Jul-23 20:58N 60°06' E 022°04'0 0.0
2017-Jul-23 20:29N 60°06' E 022°04'0 0.0
2017-Jul-23 19:59N 60°06' E 022°04'0 0.0
2017-Jul-23 19:25N 60°06' E 022°04'0 0.0
2017-Jul-23 19:00N 60°06' E 022°04'0 0.0
2017-Jul-23 18:30N 60°06' E 022°04'0 0.0
2017-Jul-23 18:00N 60°06' E 022°04'0 0.0
2017-Jul-23 17:30N 60°06' E 022°04'0 0.1
2017-Jul-23 17:00N 60°06' E 022°04'3 6.3
2017-Jul-23 16:31N 60°08' E 022°08'3 5.5
2017-Jul-23 16:00N 60°11' E 022°10'3 6.6
2017-Jul-23 15:30N 60°14' E 022°07'0 0.5
2017-Jul-23 15:00N 60°14' E 022°07'3 6.2
2017-Jul-23 14:31N 60°17' E 022°05'3 5.0
2017-Jul-23 14:00N 60°19' E 022°04'3 5.3
2017-Jul-23 13:30N 60°22' E 022°06'2 3.1
2017-Jul-23 13:00N 60°23' E 022°07'2 3.8
2017-Jul-23 12:30N 60°25' E 022°08'2 5.0
2017-Jul-23 12:00N 60°26' E 022°13'1 2.0
2017-Jul-23 11:26N 60°27' E 022°15'0 0.0
2017-Jul-23 10:59N 60°27' E 022°15'0 0.0
2017-Jul-23 10:26N 60°27' E 022°15'0 0.0
2017-Jul-23 09:59N 60°27' E 022°15'1 2.2
2017-Jul-23 09:30N 60°26' E 022°13'0 0.3
2017-Jul-23 09:01N 60°26' E 022°13'2 4.7
2017-Jul-23 08:31N 60°25' E 022°09'1 2.4
2017-Jul-23 08:01N 60°24' E 022°07'1 1.0
2017-Jul-23 07:31N 60°24' E 022°07'2 4.1
2017-Jul-23 07:00N 60°25' E 022°10'2 3.5
2017-Jul-23 06:31N 60°27' E 022°13'0 0.8
2017-Jul-23 06:01N 60°26' E 022°13'1 1.9
2017-Jul-23 05:28N 60°27' E 022°15'0 0.0
2017-Jul-23 04:58N 60°27' E 022°15'0 0.0
2017-Jul-23 04:28N 60°27' E 022°15'0 0.0
2017-Jul-23 03:58N 60°27' E 022°15'0 0.0
2017-Jul-23 03:28N 60°26' E 022°15'0 0.0
2017-Jul-23 02:58N 60°27' E 022°15'0 0.0
2017-Jul-23 02:28N 60°27' E 022°15'0 0.0
2017-Jul-23 01:58N 60°27' E 022°15'0 0.0
2017-Jul-23 01:28N 60°27' E 022°15'0 0.0
2017-Jul-23 00:58N 60°27' E 022°15'0 0.0
2017-Jul-23 00:28N 60°27' E 022°15'0 0.0
2017-Jul-22 23:58N 60°27' E 022°15'0 0.0
2017-Jul-22 23:30N 60°27' E 022°15'0 0.0
2017-Jul-22 22:58N 60°27' E 022°15'0 0.0
2017-Jul-22 22:28N 60°27' E 022°15'0 0.0
2017-Jul-22 21:58N 60°27' E 022°15'0 0.0
2017-Jul-22 21:28N 60°27' E 022°15'0 0.0
2017-Jul-22 20:59N 60°27' E 022°15'0 0.0
2017-Jul-22 20:30N 60°27' E 022°15'0 0.0
2017-Jul-22 19:59N 60°27' E 022°15'0 0.0
2017-Jul-22 19:28N 60°27' E 022°15'0 0.0
2017-Jul-22 18:58N 60°27' E 022°15'0 0.0
2017-Jul-22 18:30N 60°27' E 022°15'0 0.0
2017-Jul-22 18:01N 60°27' E 022°15'0 0.0
2017-Jul-22 17:28N 60°27' E 022°15'0 0.0
2017-Jul-22 16:58N 60°27' E 022°15'0 0.0
2017-Jul-22 16:28N 60°27' E 022°15'0 0.0
2017-Jul-22 15:57N 60°27' E 022°15'0 0.0
2017-Jul-22 15:30N 60°27' E 022°15'0 0.0
2017-Jul-22 15:01N 60°27' E 022°15'0 0.0
2017-Jul-22 14:01N 60°27' E 022°15'0 0.0
2017-Jul-22 13:31N 60°27' E 022°15'0 0.0
2017-Jul-22 13:00N 60°27' E 022°15'0 0.0
2017-Jul-22 12:30N 60°27' E 022°15'0 0.0
2017-Jul-22 12:00N 60°27' E 022°15'0 0.0
2017-Jul-22 11:30N 60°27' E 022°15'0 0.0
2017-Jul-22 10:57N 60°27' E 022°15'0 0.0
2017-Jul-22 10:30N 60°27' E 022°15'0 0.0
2017-Jul-22 10:01N 60°27' E 022°15'0 0.0
2017-Jul-22 09:30N 60°27' E 022°15'0 0.0
2017-Jul-22 08:57N 60°27' E 022°15'0 0.0
2017-Jul-22 08:30N 60°27' E 022°15'0 0.0
2017-Jul-22 08:01N 60°27' E 022°15'0 0.0
2017-Jul-22 07:30N 60°27' E 022°15'0 0.0
2017-Jul-22 07:00N 60°27' E 022°15'0 0.0
2017-Jul-22 06:27N 60°27' E 022°15'0 0.0
2017-Jul-22 06:00N 60°27' E 022°15'0 0.0
2017-Jul-22 05:30N 60°27' E 022°15'0 0.0
2017-Jul-22 05:00N 60°27' E 022°15'0 0.0
2017-Jul-22 04:30N 60°27' E 022°15'0 0.0
2017-Jul-22 04:00N 60°27' E 022°15'0 0.0
2017-Jul-22 03:30N 60°27' E 022°15'0 0.0
2017-Jul-22 03:00N 60°27' E 022°15'0 0.0
2017-Jul-22 02:30N 60°27' E 022°15'0 0.0
2017-Jul-22 02:00N 60°27' E 022°15'0 0.0
2017-Jul-22 01:29N 60°27' E 022°15'0 0.0
2017-Jul-22 00:59N 60°27' E 022°15'0 0.0
2017-Jul-22 00:29N 60°27' E 022°15'0 0.0
2017-Jul-22 00:00N 60°27' E 022°15'0 0.0
2017-Jul-21 23:30N 60°27' E 022°15'0 0.0
2017-Jul-21 23:00N 60°27' E 022°15'0 0.0
2017-Jul-21 22:30N 60°27' E 022°15'0 0.0
2017-Jul-21 22:00N 60°27' E 022°15'0 0.0
2017-Jul-21 21:29N 60°27' E 022°15'0 0.0
2017-Jul-21 20:59N 60°27' E 022°15'0 0.0
2017-Jul-21 20:30N 60°27' E 022°15'0 0.0
2017-Jul-21 20:00N 60°27' E 022°15'0 0.0
2017-Jul-21 19:29N 60°27' E 022°15'0 0.0
2017-Jul-21 18:59N 60°27' E 022°15'0 0.0
2017-Jul-21 18:30N 60°27' E 022°15'0 0.0
2017-Jul-21 17:59N 60°27' E 022°15'0 0.0
2017-Jul-21 17:30N 60°27' E 022°15'0 0.0
2017-Jul-21 16:59N 60°27' E 022°15'0 0.0
2017-Jul-21 16:30N 60°27' E 022°15'0 0.0
2017-Jul-21 16:00N 60°27' E 022°15'0 0.0
2017-Jul-21 15:29N 60°27' E 022°15'0 0.0
2017-Jul-21 14:59N 60°27' E 022°15'0 0.0
2017-Jul-21 14:29N 60°27' E 022°15'0 0.0
2017-Jul-21 13:59N 60°27' E 022°15'0 0.0
2017-Jul-21 13:29N 60°27' E 022°15'0 0.0
2017-Jul-21 13:00N 60°27' E 022°15'0 0.0
2017-Jul-21 12:30N 60°27' E 022°15'0 0.0
2017-Jul-21 11:56N 60°27' E 022°15'0 0.0
2017-Jul-21 11:29N 60°27' E 022°15'0 0.0
2017-Jul-21 11:00N 60°27' E 022°15'0 0.0
2017-Jul-21 10:30N 60°27' E 022°15'0 0.0
2017-Jul-21 09:59N 60°27' E 022°15'0 0.0
2017-Jul-21 09:29N 60°27' E 022°15'0 0.0
2017-Jul-21 08:59N 60°27' E 022°15'0 0.0
2017-Jul-21 08:29N 60°27' E 022°15'0 0.0
2017-Jul-21 07:59N 60°27' E 022°15'0 0.0
2017-Jul-21 07:29N 60°27' E 022°15'0 0.0
2017-Jul-21 06:59N 60°27' E 022°15'0 0.0
2017-Jul-21 06:29N 60°27' E 022°15'0 0.0
2017-Jul-21 05:59N 60°27' E 022°15'0 0.0
2017-Jul-21 05:29N 60°27' E 022°15'0 0.0
2017-Jul-21 04:59N 60°27' E 022°15'0 0.0
2017-Jul-21 04:29N 60°27' E 022°15'0 0.0
2017-Jul-21 03:59N 60°27' E 022°15'0 0.0
2017-Jul-21 03:29N 60°27' E 022°15'0 0.0
2017-Jul-21 02:59N 60°27' E 022°15'0 0.0
2017-Jul-21 02:29N 60°27' E 022°15'0 0.0
2017-Jul-21 01:59N 60°27' E 022°15'0 0.0
2017-Jul-21 01:29N 60°27' E 022°15'0 0.0
2017-Jul-21 00:59N 60°27' E 022°15'0 0.0
2017-Jul-21 00:29N 60°27' E 022°15'0 0.0
2017-Jul-20 23:59N 60°27' E 022°15'0 0.0
2017-Jul-20 23:29N 60°27' E 022°15'0 0.0
2017-Jul-20 22:59N 60°27' E 022°15'0 0.0
2017-Jul-20 22:29N 60°27' E 022°15'0 0.0
2017-Jul-20 21:59N 60°27' E 022°15'0 0.0
2017-Jul-20 21:29N 60°27' E 022°15'0 0.0
2017-Jul-20 21:00N 60°27' E 022°15'0 0.0
2017-Jul-20 20:25N 60°27' E 022°15'0 0.0
2017-Jul-20 19:59N 60°27' E 022°15'0 0.0
2017-Jul-20 19:30N 60°27' E 022°15'0 0.0
2017-Jul-20 18:59N 60°27' E 022°15'0 0.0
2017-Jul-20 18:29N 60°27' E 022°15'0 0.0
2017-Jul-20 17:59N 60°27' E 022°15'0 0.0
2017-Jul-20 17:29N 60°27' E 022°15'0 0.0
2017-Jul-20 16:59N 60°27' E 022°15'0 0.0
2017-Jul-20 16:27N 60°27' E 022°15'0 0.0
2017-Jul-20 15:59N 60°27' E 022°15'0 0.0
2017-Jul-20 15:29N 60°27' E 022°15'0 0.0
2017-Jul-20 14:59N 60°27' E 022°15'0 0.0
2017-Jul-20 13:59N 60°27' E 022°15'0 0.0
2017-Jul-20 13:29N 60°27' E 022°15'0 0.0
2017-Jul-20 12:59N 60°27' E 022°15'0 0.0
2017-Jul-20 12:29N 60°27' E 022°15'0 0.0
2017-Jul-20 11:59N 60°27' E 022°15'0 0.0
2017-Jul-20 11:29N 60°27' E 022°15'0 0.0
2017-Jul-20 10:59N 60°27' E 022°15'0 0.0
2017-Jul-20 10:29N 60°27' E 022°15'0 0.0
2017-Jul-20 09:59N 60°27' E 022°15'0 0.0
2017-Jul-20 09:29N 60°27' E 022°15'0 0.0
2017-Jul-20 08:59N 60°27' E 022°15'0 0.7
2017-Jul-20 08:31N 60°26' E 022°15'2 4.1
2017-Jul-20 08:01N 60°25' E 022°11'3 6.3
2017-Jul-20 07:30N 60°23' E 022°07'3 6.3
2017-Jul-20 07:00N 60°20' E 022°04'2 4.1
2017-Jul-20 06:31N 60°18' E 022°03'2 3.3
2017-Jul-20 06:01N 60°17' E 022°01'3 5.1
2017-Jul-20 05:31N 60°14' E 021°59'0 0.4
2017-Jul-20 05:00N 60°14' E 021°58'0 0.0
2017-Jul-20 04:30N 60°14' E 021°58'0 0.0
2017-Jul-20 04:00N 60°14' E 021°58'0 0.0
2017-Jul-20 03:30N 60°14' E 021°58'0 0.0
2017-Jul-20 03:00N 60°14' E 021°58'0 0.0
2017-Jul-20 02:30N 60°14' E 021°58'0 0.0
2017-Jul-20 02:00N 60°14' E 021°58'0 0.0
2017-Jul-20 01:30N 60°14' E 021°58'0 0.0
2017-Jul-20 01:00N 60°14' E 021°58'0 0.0
2017-Jul-20 00:30N 60°14' E 021°58'0 0.0
2017-Jul-20 00:00N 60°14' E 021°58'0 0.0
2017-Jul-19 23:30N 60°14' E 021°58'0 0.0
2017-Jul-19 23:00N 60°14' E 021°58'0 0.0
2017-Jul-19 22:30N 60°14' E 021°58'0 0.0
2017-Jul-19 22:00N 60°14' E 021°58'0 0.0
2017-Jul-19 21:30N 60°14' E 021°58'0 0.0
2017-Jul-19 21:00N 60°14' E 021°58'0 0.0
2017-Jul-19 20:30N 60°14' E 021°58'0 0.0
2017-Jul-19 19:58N 60°14' E 021°58'0 0.0
2017-Jul-19 19:30N 60°14' E 021°58'0 0.0
2017-Jul-19 19:00N 60°14' E 021°58'0 0.0
2017-Jul-19 18:30N 60°14' E 021°58'0 0.0
2017-Jul-19 18:00N 60°14' E 021°58'0 0.0
2017-Jul-19 17:30N 60°14' E 021°58'0 0.0
2017-Jul-19 17:00N 60°14' E 021°58'0 0.0
2017-Jul-19 16:30N 60°14' E 021°58'0 0.0
2017-Jul-19 16:00N 60°14' E 021°58'0 0.0
2017-Jul-19 15:30N 60°14' E 021°58'0 0.0
2017-Jul-19 15:00N 60°14' E 021°58'0 0.0
2017-Jul-19 14:31N 60°14' E 021°58'2 4.1
2017-Jul-19 14:00N 60°13' E 022°02'3 6.5
2017-Jul-19 13:30N 60°13' E 022°08'3 6.5
2017-Jul-19 13:00N 60°11' E 022°14'2 4.8
2017-Jul-19 12:30N 60°09' E 022°17'3 5.5
2017-Jul-19 12:01N 60°07' E 022°20'2 4.3
2017-Jul-19 11:30N 60°05' E 022°20'3 6.0
2017-Jul-19 11:00N 60°02' E 022°18'3 5.1
2017-Jul-19 10:30N 59°59' E 022°17'1 2.5
2017-Jul-19 10:00N 60°00' E 022°19'3 6.3
2017-Jul-19 09:30N 59°57' E 022°19'4 7.7
2017-Jul-19 09:01N 59°54' E 022°15'1 2.0
2017-Jul-19 08:31N 59°53' E 022°17'3 6.5
2017-Jul-19 08:01N 59°53' E 022°23'3 5.6
2017-Jul-19 07:31N 59°55' E 022°28'1 1.2
2017-Jul-19 07:00N 59°55' E 022°28'0 0.0
2017-Jul-19 06:30N 59°55' E 022°28'0 0.0
2017-Jul-19 06:00N 59°55' E 022°28'0 0.0
2017-Jul-19 05:30N 59°55' E 022°28'0 0.0
2017-Jul-19 05:00N 59°55' E 022°28'0 0.0
2017-Jul-19 04:30N 59°55' E 022°28'0 0.0
2017-Jul-19 04:00N 59°55' E 022°28'0 0.0
2017-Jul-19 03:30N 59°55' E 022°28'0 0.0
2017-Jul-19 03:00N 59°55' E 022°28'0 0.0
2017-Jul-19 02:30N 59°55' E 022°28'0 0.0
2017-Jul-19 02:00N 59°55' E 022°28'0 0.0
2017-Jul-19 01:30N 59°55' E 022°28'0 0.0
2017-Jul-19 01:00N 59°55' E 022°28'0 0.0
2017-Jul-19 00:30N 59°55' E 022°28'0 0.0
2017-Jul-19 00:00N 59°55' E 022°28'0 0.0
2017-Jul-18 23:30N 59°55' E 022°28'0 0.0
2017-Jul-18 23:00N 59°55' E 022°28'0 0.0
2017-Jul-18 22:27N 59°55' E 022°28'0 0.0
2017-Jul-18 22:00N 59°55' E 022°28'0 0.0
2017-Jul-18 21:30N 59°55' E 022°28'0 0.0
2017-Jul-18 21:00N 59°55' E 022°28'0 0.0
2017-Jul-18 20:29N 59°55' E 022°28'0 0.0
2017-Jul-18 20:00N 59°55' E 022°28'0 0.0
2017-Jul-18 19:30N 59°55' E 022°28'0 0.0
2017-Jul-18 18:57N 59°55' E 022°28'0 0.0
2017-Jul-18 18:30N 59°55' E 022°28'0 0.0
2017-Jul-18 18:00N 59°55' E 022°28'0 0.0
2017-Jul-18 17:30N 59°55' E 022°28'0 0.0
2017-Jul-18 17:00N 59°55' E 022°28'0 0.0
2017-Jul-18 16:30N 59°55' E 022°28'0 0.1
2017-Jul-18 16:00N 59°55' E 022°28'1 2.5
2017-Jul-18 15:30N 59°54' E 022°29'3 6.9
2017-Jul-18 15:01N 59°55' E 022°36'7 7.0
2017-Jul-18 14:00N 59°51' E 022°48'4 7.1
2017-Jul-18 13:30N 59°49' E 022°53'2 4.2
2017-Jul-18 13:00N 59°49' E 022°57'0 0.0
2017-Jul-18 12:30N 59°49' E 022°57'0 0.0
2017-Jul-18 12:00N 59°49' E 022°57'0 0.0
2017-Jul-18 11:30N 59°49' E 022°57'0 0.0
2017-Jul-18 11:00N 59°49' E 022°57'2 3.3
2017-Jul-18 10:30N 59°48' E 022°58'3 6.8
2017-Jul-18 10:00N 59°48' E 023°05'3 6.8
2017-Jul-18 09:30N 59°48' E 023°12'3 6.8
2017-Jul-18 09:00N 59°49' E 023°18'3 6.9
2017-Jul-18 08:30N 59°50' E 023°25'3 6.4
2017-Jul-18 08:00N 59°51' E 023°31'3 7.0
2017-Jul-18 07:30N 59°52' E 023°37'4 7.2
2017-Jul-18 07:00N 59°54' E 023°43'4 7.3
2017-Jul-18 06:30N 59°57' E 023°49'3 6.7
2017-Jul-18 06:00N 59°59' E 023°54'3 6.5
2017-Jul-18 05:30N 59°60' E 023°60'0 0.7
2017-Jul-18 05:00N 59°60' E 023°59'0 0.0
2017-Jul-18 04:30N 59°60' E 023°59'0 0.0
2017-Jul-18 04:00N 59°60' E 023°59'0 0.0
2017-Jul-18 03:30N 59°60' E 023°59'0 0.0
2017-Jul-18 02:57N 59°60' E 023°59'0 0.0
2017-Jul-18 02:30N 59°60' E 023°59'0 0.0
2017-Jul-18 02:00N 59°60' E 023°59'0 0.0
2017-Jul-18 01:30N 59°60' E 023°59'0 0.0
2017-Jul-18 01:00N 59°60' E 023°59'0 0.0
2017-Jul-18 00:30N 59°60' E 023°59'0 0.0
2017-Jul-18 00:00N 59°60' E 023°59'0 0.0
2017-Jul-17 23:30N 59°60' E 023°59'0 0.0
2017-Jul-17 22:57N 59°60' E 023°59'0 0.0
2017-Jul-17 22:30N 59°60' E 023°59'0 0.0
2017-Jul-17 22:00N 59°60' E 023°59'0 0.0
2017-Jul-17 21:30N 59°60' E 023°59'0 0.0
2017-Jul-17 21:00N 59°60' E 023°59'0 0.0
2017-Jul-17 20:31N 59°60' E 023°59'0 0.0
2017-Jul-17 20:00N 59°60' E 023°59'0 0.0
2017-Jul-17 19:30N 59°60' E 023°59'0 0.0
2017-Jul-17 19:00N 59°60' E 023°59'3 5.8
2017-Jul-17 18:30N 60°00' E 024°05'4 7.1
2017-Jul-17 18:00N 60°01' E 024°12'2 4.4
2017-Jul-17 17:30N 60°01' E 024°16'2 4.0
2017-Jul-17 16:59N 59°59' E 024°19'2 5.0
2017-Jul-17 16:30N 59°58' E 024°23'3 5.7
2017-Jul-17 16:00N 59°59' E 024°28'3 6.2
2017-Jul-17 15:31N 60°00' E 024°34'3 6.6
2017-Jul-17 15:00N 60°03' E 024°39'3 6.6
2017-Jul-17 14:31N 60°05' E 024°44'3 6.4
2017-Jul-17 14:00N 60°05' E 024°50'2 4.5
2017-Jul-17 13:30N 60°05' E 024°54'3 5.5
2017-Jul-17 13:01N 60°07' E 024°58'3 5.4
2017-Jul-17 12:31N 60°10' E 024°60'1 2.2
2017-Jul-17 11:59N 60°10' E 024°58'0 0.0
2017-Jul-17 11:29N 60°10' E 024°58'0 0.0
2017-Jul-17 11:00N 60°10' E 024°58'3 5.6
2017-Jul-17 10:30N 60°09' E 025°03'1 2.2
2017-Jul-17 10:00N 60°09' E 025°05'4 7.1
2017-Jul-17 09:30N 60°11' E 025°12'3 6.0
2017-Jul-17 09:00N 60°11' E 025°18'3 5.6
2017-Jul-17 08:30N 60°12' E 025°23'3 6.4
2017-Jul-17 08:00N 60°12' E 025°30'3 5.6
2017-Jul-17 07:30N 60°11' E 025°35'2 4.7
2017-Jul-17 07:00N 60°11' E 025°40'2 4.3
2017-Jul-17 06:31N 60°12' E 025°44'2 4.5
2017-Jul-17 06:00N 60°11' E 025°49'1 1.4
2017-Jul-17 05:30N 60°11' E 025°50'0 0.0
2017-Jul-17 05:00N 60°11' E 025°50'0 0.0
2017-Jul-17 04:30N 60°11' E 025°50'0 0.0
2017-Jul-17 04:00N 60°11' E 025°50'0 0.0
2017-Jul-17 03:30N 60°11' E 025°50'0 0.0
2017-Jul-17 03:00N 60°11' E 025°50'0 0.0
2017-Jul-17 02:30N 60°11' E 025°50'0 0.0
2017-Jul-17 02:00N 60°11' E 025°50'0 0.0
2017-Jul-17 01:30N 60°11' E 025°50'0 0.0
2017-Jul-17 01:00N 60°11' E 025°50'0 0.0
2017-Jul-17 00:30N 60°11' E 025°50'0 0.0
2017-Jul-17 00:00N 60°11' E 025°50'0 0.0
2017-Jul-16 23:30N 60°11' E 025°50'0 0.0
2017-Jul-16 23:00N 60°11' E 025°50'0 0.0
2017-Jul-16 22:30N 60°11' E 025°50'0 0.0
2017-Jul-16 22:00N 60°11' E 025°50'0 0.0
2017-Jul-16 21:30N 60°11' E 025°50'0 0.0
2017-Jul-16 20:58N 60°11' E 025°50'0 0.0
2017-Jul-16 20:29N 60°11' E 025°50'0 0.0
2017-Jul-16 19:59N 60°11' E 025°50'0 0.0
2017-Jul-16 19:27N 60°11' E 025°50'0 0.0
2017-Jul-16 19:00N 60°11' E 025°50'0 0.2
2017-Jul-16 18:31N 60°12' E 025°50'2 3.5
2017-Jul-16 18:00N 60°12' E 025°54'3 6.0
2017-Jul-16 17:30N 60°13' E 025°59'3 6.3
2017-Jul-16 17:01N 60°15' E 026°03'3 6.6
2017-Jul-16 16:31N 60°16' E 026°10'3 6.9
2017-Jul-16 16:00N 60°17' E 026°16'4 7.5
2017-Jul-16 15:31N 60°18' E 026°23'3 6.4
2017-Jul-16 15:00N 60°19' E 026°29'3 5.9
2017-Jul-16 14:30N 60°20' E 026°35'3 6.5
2017-Jul-16 14:00N 60°22' E 026°41'4 7.1
2017-Jul-16 13:31N 60°23' E 026°48'3 6.1
2017-Jul-16 13:00N 60°24' E 026°53'3 6.4
2017-Jul-16 12:30N 60°26' E 026°58'2 3.8
2017-Jul-16 12:00N 60°28' E 026°58'1 1.5
2017-Jul-16 11:31N 60°29' E 026°57'1 0.9
2017-Jul-16 10:59N 60°28' E 026°56'0 0.0
2017-Jul-16 10:30N 60°28' E 026°57'0 0.0
2017-Jul-16 10:00N 60°28' E 026°56'0 0.0
2017-Jul-16 09:29N 60°28' E 026°56'0 0.0
2017-Jul-16 08:59N 60°28' E 026°56'0 0.0
2017-Jul-16 08:29N 60°28' E 026°56'0 0.0
2017-Jul-16 08:00N 60°28' E 026°56'0 0.0
2017-Jul-16 07:29N 60°28' E 026°56'0 0.0
2017-Jul-16 06:59N 60°28' E 026°56'0 0.0
2017-Jul-16 06:29N 60°28' E 026°56'0 0.0
2017-Jul-16 05:59N 60°28' E 026°56'0 0.0
2017-Jul-16 05:29N 60°28' E 026°56'0 0.0
2017-Jul-16 04:59N 60°28' E 026°56'0 0.0
2017-Jul-16 04:29N 60°28' E 026°56'0 0.0
2017-Jul-16 03:59N 60°28' E 026°56'0 0.0
2017-Jul-16 03:29N 60°28' E 026°56'0 0.0
2017-Jul-16 02:59N 60°28' E 026°56'0 0.0
2017-Jul-16 02:30N 60°28' E 026°56'0 0.0
2017-Jul-16 02:00N 60°28' E 026°56'0 0.0
2017-Jul-16 01:29N 60°28' E 026°56'0 0.0
2017-Jul-16 00:59N 60°28' E 026°56'0 0.0
2017-Jul-16 00:30N 60°28' E 026°56'0 0.0
2017-Jul-16 00:00N 60°28' E 026°56'0 0.0
2017-Jul-15 23:30N 60°28' E 026°56'0 0.0
2017-Jul-15 23:00N 60°28' E 026°56'0 0.0
2017-Jul-15 22:29N 60°28' E 026°56'0 0.0
2017-Jul-15 21:59N 60°28' E 026°56'0 0.0
2017-Jul-15 21:30N 60°28' E 026°56'0 0.0
2017-Jul-15 20:59N 60°28' E 026°56'0 0.0
2017-Jul-15 20:29N 60°28' E 026°56'0 0.0
2017-Jul-15 19:59N 60°28' E 026°56'0 0.0
2017-Jul-15 19:29N 60°28' E 026°56'0 0.0
2017-Jul-15 18:59N 60°28' E 026°56'0 0.0
2017-Jul-15 18:29N 60°28' E 026°56'0 0.0
2017-Jul-15 17:59N 60°28' E 026°56'0 0.0
2017-Jul-15 17:29N 60°28' E 026°56'0 0.0
2017-Jul-15 16:59N 60°28' E 026°56'  

Dump ship's entire track history